createdAt,value
2022-10-19T00:02:00.076Z,103010.38
2022-10-19T00:04:26.539Z,103019.69
2022-10-19T00:06:53.066Z,103014.50
2022-10-19T00:09:20.209Z,103014.00
2022-10-19T00:11:49.071Z,103006.25
2022-10-19T00:14:18.564Z,102999.22
2022-10-19T00:16:46.837Z,103009.59
2022-10-19T00:19:17.575Z,103004.13
2022-10-19T00:21:44.231Z,103004.41
2022-10-19T00:24:11.018Z,103000.00
2022-10-19T00:26:38.143Z,103002.88
2022-10-19T00:29:05.687Z,103003.91
2022-10-19T00:31:32.214Z,103001.53
2022-10-19T00:33:59.966Z,103002.31
2022-10-19T00:36:32.852Z,103008.53
2022-10-19T00:39:00.158Z,103009.31
2022-10-19T00:41:30.371Z,103007.75
2022-10-19T00:44:01.468Z,103010.81
2022-10-19T00:46:30.711Z,103002.28
2022-10-19T00:49:20.282Z,103009.25
2022-10-19T00:51:51.108Z,103007.72
2022-10-19T00:54:18.571Z,103012.59
2022-10-19T00:56:47.300Z,103006.41
2022-10-19T00:59:18.738Z,103009.25
2022-10-19T01:01:46.039Z,103008.72
2022-10-19T01:04:13.442Z,102995.50
2022-10-19T01:06:41.171Z,102997.81
2022-10-19T01:09:08.683Z,102995.50
2022-10-19T01:11:50.428Z,102996.28
2022-10-19T01:14:29.019Z,102990.56
2022-10-19T01:17:07.588Z,102990.84
2022-10-19T01:20:11.727Z,102973.97
2022-10-19T01:22:56.788Z,102982.22
2022-10-19T01:25:38.852Z,102973.16
2022-10-19T01:28:14.387Z,102971.91
2022-10-19T01:30:49.958Z,102970.31
2022-10-19T01:33:31.471Z,102971.56
2022-10-19T01:36:31.915Z,102976.50
2022-10-19T01:39:21.212Z,102958.38
2022-10-19T01:41:56.656Z,102960.94
2022-10-19T01:44:28.986Z,102957.31
2022-10-19T01:47:00.704Z,102963.50
2022-10-19T01:49:41.441Z,102964.25
2022-10-19T01:52:11.749Z,102960.34
2022-10-19T01:54:46.865Z,102957.97
2022-10-19T01:57:20.112Z,102957.50
2022-10-19T01:59:48.512Z,102969.69
2022-10-19T02:02:17.018Z,102964.53
2022-10-19T02:04:44.021Z,102965.03
2022-10-19T02:07:11.571Z,102958.78
2022-10-19T02:09:38.092Z,102954.59
2022-10-19T02:12:09.253Z,102960.75
2022-10-19T02:14:42.145Z,102966.91
2022-10-19T02:17:12.653Z,102966.19
2022-10-19T02:19:39.252Z,102968.25
2022-10-19T02:22:06.549Z,102961.19
2022-10-19T02:24:33.081Z,102968.47
2022-10-19T02:27:00.697Z,102957.63
2022-10-19T02:29:28.087Z,102959.66
2022-10-19T02:31:54.751Z,102958.38
2022-10-19T02:34:21.318Z,102955.00
2022-10-19T02:36:47.813Z,102947.97
2022-10-19T02:39:14.452Z,102948.72
2022-10-19T02:42:12.048Z,102948.72
2022-10-19T02:44:53.150Z,102941.44
2022-10-19T02:47:28.618Z,102942.44
2022-10-19T02:49:55.099Z,102947.09
2022-10-19T02:52:21.554Z,102933.91
2022-10-19T02:54:48.216Z,102927.66
2022-10-19T02:57:23.876Z,102931.50
2022-10-19T02:59:52.755Z,102942.22
2022-10-19T03:02:20.565Z,102927.53
2022-10-19T03:07:21.065Z,102934.53
2022-10-19T03:09:47.627Z,102945.88
2022-10-19T03:12:15.064Z,102937.63
2022-10-19T03:14:41.839Z,102933.50
2022-10-19T03:17:08.559Z,102919.00
2022-10-19T03:19:36.188Z,102927.28
2022-10-19T03:22:03.612Z,102926.50
2022-10-19T03:24:31.167Z,102917.72
2022-10-19T03:26:57.825Z,102920.03
2022-10-19T03:29:24.452Z,102919.25
2022-10-19T03:31:51.315Z,102917.19
2022-10-19T03:34:17.846Z,102926.22
2022-10-19T03:36:44.387Z,102926.22
2022-10-19T03:39:12.678Z,102926.69
2022-10-19T03:41:39.583Z,102924.34
2022-10-19T03:44:07.593Z,102921.72
2022-10-19T03:46:34.329Z,102915.72
2022-10-19T03:49:00.830Z,102920.38
2022-10-19T03:51:29.199Z,102915.41
2022-10-19T03:53:59.365Z,102908.13
2022-10-19T03:56:29.005Z,102916.13
2022-10-19T03:58:57.342Z,102913.72
2022-10-19T04:01:25.462Z,102905.63
2022-10-19T04:03:56.463Z,102901.19
2022-10-19T04:06:25.993Z,102906.94
2022-10-19T04:08:53.313Z,102907.72
2022-10-19T04:11:24.545Z,102916.09
2022-10-19T04:13:52.559Z,102909.22
2022-10-19T04:16:20.556Z,102906.94
2022-10-19T04:18:47.803Z,102911.78
2022-10-19T04:21:34.926Z,102910.50
2022-10-19T04:24:06.006Z,102915.31
2022-10-19T04:26:33.573Z,102917.22
2022-10-19T04:29:01.692Z,102921.84
2022-10-19T04:31:28.653Z,102920.31
2022-10-19T04:33:55.809Z,102910.25
2022-10-19T04:36:22.740Z,102920.50
2022-10-19T04:38:49.242Z,102908.56
2022-10-19T04:41:17.936Z,102919.34
2022-10-19T04:43:47.910Z,102922.38
2022-10-19T04:46:19.219Z,102922.16
2022-10-19T04:48:47.727Z,102926.16
2022-10-19T04:51:15.898Z,102917.09
2022-10-19T04:53:44.220Z,102922.19
2022-10-19T04:56:22.519Z,102913.44
2022-10-19T04:58:49.535Z,102919.66
2022-10-19T05:01:19.400Z,102908.22
2022-10-19T05:03:46.665Z,102911.81
2022-10-19T05:06:14.261Z,102913.63
2022-10-19T05:08:41.064Z,102910.06
2022-10-19T05:11:10.495Z,102914.28
2022-10-19T05:13:37.350Z,102917.25
2022-10-19T05:16:06.466Z,102911.06
2022-10-19T05:18:34.066Z,102912.25
2022-10-19T05:21:09.365Z,102915.28
2022-10-19T05:23:35.886Z,102907.97
2022-10-19T05:26:07.758Z,102905.56
2022-10-19T05:28:35.148Z,102897.44
2022-10-19T05:31:21.036Z,102901.84
2022-10-19T05:33:48.034Z,102897.44
2022-10-19T05:36:19.512Z,102904.47
2022-10-19T05:38:47.987Z,102914.50
2022-10-19T05:41:15.403Z,102901.84
2022-10-19T05:43:43.070Z,102908.16
2022-10-19T05:46:12.019Z,102895.25
2022-10-19T05:48:39.383Z,102897.16
2022-10-19T05:51:07.160Z,102897.00
2022-10-19T05:53:34.887Z,102894.66
2022-10-19T05:56:03.835Z,102893.13
2022-10-19T05:58:30.285Z,102893.03
2022-10-19T06:00:58.754Z,102896.69
2022-10-19T06:03:26.001Z,102893.34
2022-10-19T06:05:53.762Z,102893.13
2022-10-19T06:08:22.412Z,102895.50
2022-10-19T06:10:49.489Z,102889.56
2022-10-19T06:13:17.131Z,102887.94
2022-10-19T06:15:43.599Z,102879.59
2022-10-19T06:18:12.130Z,102881.59
2022-10-19T06:20:42.400Z,102884.09
2022-10-19T06:23:09.420Z,102887.78
2022-10-19T06:25:37.696Z,102888.88
2022-10-19T06:28:05.484Z,102896.06
2022-10-19T06:30:32.081Z,102894.84
2022-10-19T06:32:59.958Z,102901.22
2022-10-19T06:35:26.572Z,102904.50
2022-10-19T06:37:59.576Z,102901.06
2022-10-19T06:40:26.180Z,102892.66
2022-10-19T06:42:55.195Z,102893.28
2022-10-19T06:45:21.658Z,102890.94
2022-10-19T06:50:20.672Z,102891.41
2022-10-19T06:52:47.240Z,102898.13
2022-10-19T06:55:13.989Z,102892.72
2022-10-19T06:57:40.492Z,102885.41
2022-10-19T07:00:08.360Z,102883.44
2022-10-19T07:02:34.881Z,102881.41
2022-10-19T07:05:06.129Z,102886.94
2022-10-19T07:07:34.245Z,102893.72
2022-10-19T07:10:03.291Z,102891.25
2022-10-19T07:12:29.748Z,102885.78
2022-10-19T07:14:56.452Z,102876.41
2022-10-19T07:17:22.942Z,102882.28
2022-10-19T07:19:49.397Z,102884.84
2022-10-19T07:22:21.199Z,102880.31
2022-10-19T07:24:52.224Z,102875.38
2022-10-19T07:27:18.816Z,102884.75
2022-10-19T07:29:45.337Z,102883.34
2022-10-19T07:32:11.848Z,102885.41
2022-10-19T07:34:38.307Z,102886.25
2022-10-19T07:37:04.771Z,102896.41
2022-10-19T07:39:31.260Z,102899.56
2022-10-19T07:41:57.798Z,102894.22
2022-10-19T07:44:24.350Z,102889.00
2022-10-19T07:46:50.903Z,102894.84
2022-10-19T07:49:19.052Z,102888.03
2022-10-19T07:51:46.977Z,102895.72
2022-10-19T07:54:13.808Z,102889.56
2022-10-19T07:56:40.627Z,102891.63
2022-10-19T07:59:10.140Z,102904.13
2022-10-19T08:01:41.439Z,102900.59
2022-10-19T08:06:54.555Z,102901.97
2022-10-19T08:09:50.918Z,102901.34
2022-10-19T08:12:09.967Z,102902.72
2022-10-19T08:14:38.949Z,102899.63
2022-10-19T08:17:05.591Z,102901.78
2022-10-19T08:19:32.267Z,102903.97
2022-10-19T08:21:58.668Z,102897.28
2022-10-19T08:24:25.178Z,102899.16
2022-10-19T08:26:52.147Z,102908.22
2022-10-19T08:29:20.802Z,102907.53
2022-10-19T08:31:48.493Z,102898.28
2022-10-19T08:34:16.044Z,102904.59
2022-10-19T08:36:43.099Z,102888.72
2022-10-19T08:39:12.638Z,102896.28
2022-10-19T08:41:59.363Z,102893.50
2022-10-19T08:44:34.834Z,102880.72
2022-10-19T08:47:23.266Z,102885.91
2022-10-19T08:49:50.605Z,102882.75
2022-10-19T08:52:32.078Z,102884.41
2022-10-19T08:55:09.152Z,102887.22
2022-10-19T08:57:53.423Z,102884.03
2022-10-19T09:03:54.376Z,102863.63
2022-10-19T09:06:29.168Z,102864.59
2022-10-19T09:08:57.085Z,102855.63
2022-10-19T09:11:28.550Z,102857.66
2022-10-19T09:14:06.813Z,102852.31
2022-10-19T09:16:35.029Z,102851.31
2022-10-19T09:19:02.658Z,102849.88
2022-10-19T09:21:48.596Z,102852.56
2022-10-19T09:24:32.481Z,102861.34
2022-10-19T09:27:00.971Z,102861.06
2022-10-19T09:29:39.545Z,102856.13
2022-10-19T09:32:13.607Z,102848.03
2022-10-19T09:34:45.748Z,102842.53
2022-10-19T09:37:21.761Z,102835.63
2022-10-19T09:39:54.092Z,102827.94
2022-10-19T09:42:30.619Z,102832.50
2022-10-19T09:44:59.673Z,102831.63
2022-10-19T09:47:40.910Z,102832.59
2022-10-19T09:50:25.395Z,102829.03
2022-10-19T09:53:02.605Z,102825.94
2022-10-19T09:55:45.503Z,102823.38
2022-10-19T09:58:18.723Z,102819.34
2022-10-19T10:00:50.706Z,102821.75
2022-10-19T10:03:43.370Z,102817.63
2022-10-19T10:06:14.635Z,102820.72
2022-10-19T10:08:47.553Z,102820.22
2022-10-19T10:11:22.754Z,102820.88
2022-10-19T10:13:51.664Z,102821.53
2022-10-19T10:16:21.331Z,102813.56
2022-10-19T10:18:55.608Z,102813.66
2022-10-19T10:21:26.294Z,102812.56
2022-10-19T10:24:13.115Z,102811.72
2022-10-19T10:26:42.831Z,102811.47
2022-10-19T10:29:30.135Z,102800.81
2022-10-19T10:32:01.632Z,102791.22
2022-10-19T10:34:46.353Z,102798.47
2022-10-19T10:37:21.622Z,102792.56
2022-10-19T10:39:52.314Z,102792.75
2022-10-19T10:42:22.824Z,102779.38
2022-10-19T10:44:53.115Z,102778.09
2022-10-19T10:47:23.282Z,102774.81
2022-10-19T10:49:59.132Z,102756.97
2022-10-19T10:52:29.105Z,102765.28
2022-10-19T10:55:10.801Z,102761.19
2022-10-19T10:57:46.276Z,102761.34
2022-10-19T11:00:16.490Z,102756.44
2022-10-19T11:02:49.517Z,102752.59
2022-10-19T11:05:29.719Z,102758.13
2022-10-19T11:08:24.956Z,102758.75
2022-10-19T11:11:15.062Z,102744.00
2022-10-19T11:13:48.730Z,102746.56
2022-10-19T11:16:18.503Z,102734.22
2022-10-19T11:18:50.167Z,102726.69
2022-10-19T11:21:26.365Z,102724.06
2022-10-19T11:24:21.669Z,102719.09
2022-10-19T11:26:51.060Z,102710.00
2022-10-19T11:29:55.104Z,102715.53
2022-10-19T11:32:37.792Z,102717.97
2022-10-19T11:35:16.377Z,102713.38
2022-10-19T11:38:18.903Z,102707.00
2022-10-19T11:41:18.341Z,102705.00
2022-10-19T11:44:04.355Z,102693.34
2022-10-19T11:46:42.558Z,102693.50
2022-10-19T11:49:26.275Z,102688.63
2022-10-19T11:51:59.716Z,102683.00
2022-10-19T11:54:38.905Z,102672.88
2022-10-19T11:57:24.886Z,102663.88
2022-10-19T12:00:15.174Z,102676.44
2022-10-19T12:03:03.926Z,102664.03
2022-10-19T12:05:48.825Z,102660.66
2022-10-19T12:08:55.376Z,102654.88
2022-10-19T12:11:23.659Z,102645.25
2022-10-19T12:13:58.465Z,102633.81
2022-10-19T12:16:35.703Z,102628.34
2022-10-19T12:19:04.632Z,102630.84
2022-10-19T12:21:41.179Z,102631.09
2022-10-19T12:24:15.829Z,102617.41
2022-10-19T12:26:43.680Z,102621.66
2022-10-19T12:29:21.093Z,102610.03
2022-10-19T12:31:49.049Z,102607.06
2022-10-19T12:34:37.728Z,102603.06
2022-10-19T12:37:09.393Z,102591.19
2022-10-19T12:39:53.553Z,102596.38
2022-10-19T12:42:32.626Z,102589.94
2022-10-19T12:45:08.473Z,102589.22
2022-10-19T12:47:35.290Z,102580.00
2022-10-19T12:50:02.188Z,102569.75
2022-10-19T12:52:52.372Z,102553.25
2022-10-19T12:55:24.800Z,102555.06
2022-10-19T12:58:06.606Z,102543.88
2022-10-19T13:00:36.546Z,102542.66
2022-10-19T13:03:25.147Z,102529.88
2022-10-19T13:06:07.243Z,102531.91
2022-10-19T13:08:43.409Z,102529.72
2022-10-19T13:11:17.411Z,102521.00
2022-10-19T13:13:56.058Z,102525.59
2022-10-19T13:16:38.360Z,102512.13
2022-10-19T13:19:14.076Z,102515.31
2022-10-19T13:22:00.375Z,102516.84
2022-10-19T13:24:27.068Z,102504.50
2022-10-19T13:26:59.800Z,102503.94
2022-10-19T13:29:28.953Z,102500.41
2022-10-19T13:31:55.516Z,102508.50
2022-10-19T13:34:25.104Z,102495.06
2022-10-19T13:37:02.986Z,102501.84
2022-10-19T13:39:30.473Z,102494.91
2022-10-19T13:41:57.375Z,102491.31
2022-10-19T13:44:30.882Z,102492.28
2022-10-19T13:47:23.343Z,102482.22
2022-10-19T13:49:55.846Z,102486.44
2022-10-19T13:52:37.512Z,102479.72
2022-10-19T13:55:45.209Z,102480.66
2022-10-19T13:58:52.318Z,102483.22
2022-10-19T14:01:52.896Z,102478.41
2022-10-19T14:04:25.383Z,102483.72
2022-10-19T14:07:00.769Z,102479.84
2022-10-19T14:09:47.281Z,102482.81
2022-10-19T14:12:34.168Z,102493.59
2022-10-19T14:15:00.742Z,102485.16
2022-10-19T14:17:34.265Z,102479.66
2022-10-19T14:20:01.268Z,102486.03
2022-10-19T14:22:36.227Z,102477.56
2022-10-19T14:25:29.809Z,102496.19
2022-10-19T14:28:06.662Z,102484.25
2022-10-19T14:30:35.774Z,102481.50
2022-10-19T14:33:09.019Z,102473.03
2022-10-19T14:35:38.004Z,102467.44
2022-10-19T14:38:15.931Z,102462.63
2022-10-19T14:40:42.694Z,102464.03
2022-10-19T14:43:20.761Z,102468.09
2022-10-19T14:46:14.087Z,102460.69
2022-10-19T14:48:52.160Z,102464.84
2022-10-19T14:51:30.915Z,102465.06
2022-10-19T14:54:05.927Z,102459.22
2022-10-19T14:56:43.219Z,102450.75
2022-10-19T14:59:26.371Z,102445.34
2022-10-19T15:01:57.150Z,102438.88
2022-10-19T15:04:30.981Z,102433.91
2022-10-19T15:07:01.255Z,102425.25
2022-10-19T15:09:37.775Z,102421.88
2022-10-19T15:12:19.529Z,102424.25
2022-10-19T15:14:47.784Z,102419.09
2022-10-19T15:17:30.424Z,102421.38
2022-10-19T15:20:01.129Z,102412.53
2022-10-19T15:22:31.038Z,102414.84
2022-10-19T15:25:06.587Z,102405.66
2022-10-19T15:27:35.624Z,102410.59
2022-10-19T15:30:06.562Z,102398.63
2022-10-19T15:32:36.029Z,102388.78
2022-10-19T15:35:12.024Z,102390.47
2022-10-19T15:37:43.546Z,102385.34
2022-10-19T15:40:21.727Z,102387.47
2022-10-19T15:42:49.059Z,102374.63
2022-10-19T15:45:36.118Z,102368.28
2022-10-19T15:48:21.640Z,102381.09
2022-10-19T15:50:52.008Z,102390.25
2022-10-19T15:53:19.812Z,102378.31
2022-10-19T15:55:46.598Z,102376.47
2022-10-19T15:58:13.905Z,102380.88
2022-10-19T16:00:41.599Z,102375.97
2022-10-19T16:03:09.144Z,102371.09
2022-10-19T16:05:36.595Z,102365.84
2022-10-19T16:08:03.625Z,102360.69
2022-10-19T16:10:30.120Z,102357.88
2022-10-19T16:12:59.271Z,102357.19
2022-10-19T16:15:26.850Z,102347.00
2022-10-19T16:17:55.863Z,102341.41
2022-10-19T16:20:23.180Z,102348.09
2022-10-19T16:22:50.377Z,102345.78
2022-10-19T16:25:20.617Z,102345.22
2022-10-19T16:27:47.184Z,102340.59
2022-10-19T16:30:14.258Z,102342.97
2022-10-19T16:35:08.716Z,102329.81
2022-10-19T16:37:35.440Z,102325.56
2022-10-19T16:40:02.344Z,102323.25
2022-10-19T16:42:30.578Z,102326.06
2022-10-19T16:44:57.162Z,102327.34
2022-10-19T16:47:23.703Z,102326.00
2022-10-19T16:49:58.008Z,102320.16
2022-10-19T16:52:24.633Z,102313.41
2022-10-19T16:54:51.138Z,102314.25
2022-10-19T16:57:17.815Z,102303.03
2022-10-19T16:59:44.579Z,102299.03
2022-10-19T17:02:11.696Z,102301.31
2022-10-19T17:04:39.047Z,102300.53
2022-10-19T17:07:05.575Z,102295.94
2022-10-19T17:09:49.733Z,102294.06
2022-10-19T17:12:17.775Z,102300.91
2022-10-19T17:14:44.228Z,102293.44
2022-10-19T17:17:11.460Z,102293.19
2022-10-19T17:19:38.169Z,102289.81
2022-10-19T17:22:06.396Z,102280.19
2022-10-19T17:24:33.097Z,102284.22
2022-10-19T17:27:02.639Z,102289.00
2022-10-19T17:29:29.244Z,102291.09
2022-10-19T17:31:55.817Z,102283.25
2022-10-19T17:34:22.784Z,102284.50
2022-10-19T17:36:49.483Z,102282.06
2022-10-19T17:39:19.221Z,102268.72
2022-10-19T17:41:47.941Z,102271.31
2022-10-19T17:44:16.796Z,102277.50
2022-10-19T17:46:43.991Z,102280.75
2022-10-19T17:49:10.896Z,102282.28
2022-10-19T17:51:38.336Z,102274.16
2022-10-19T17:54:07.694Z,102272.34
2022-10-19T17:56:35.916Z,102280.00
2022-10-19T17:59:07.652Z,102272.94
2022-10-19T18:01:35.832Z,102278.47
2022-10-19T18:04:02.303Z,102284.63
2022-10-19T18:06:34.724Z,102286.59
2022-10-19T18:09:03.851Z,102274.75
2022-10-19T18:11:40.056Z,102284.47
2022-10-19T18:14:08.750Z,102284.75
2022-10-19T18:16:40.473Z,102286.88
2022-10-19T18:19:08.134Z,102290.56
2022-10-19T18:21:38.739Z,102287.78
2022-10-19T18:24:09.041Z,102293.78
2022-10-19T18:26:39.010Z,102283.16
2022-10-19T18:29:16.492Z,102275.47
2022-10-19T18:31:43.318Z,102271.78
2022-10-19T18:34:15.095Z,102277.00
2022-10-19T18:36:42.022Z,102274.19
2022-10-19T18:39:08.622Z,102274.97
2022-10-19T18:41:35.049Z,102247.66
2022-10-19T18:44:05.472Z,102252.81
2022-10-19T18:46:34.116Z,102251.91
2022-10-19T18:49:01.479Z,102248.69
2022-10-19T18:51:28.779Z,102241.41
2022-10-19T18:53:55.601Z,102232.97
2022-10-19T18:56:23.022Z,102229.41
2022-10-19T18:58:50.484Z,102236.47
2022-10-19T19:01:24.331Z,102249.34
2022-10-19T19:03:52.975Z,102251.88
2022-10-19T19:06:25.203Z,102243.41
2022-10-19T19:08:55.074Z,102235.13
2022-10-19T19:11:28.111Z,102234.09
2022-10-19T19:14:00.553Z,102218.28
2022-10-19T19:16:30.516Z,102221.34
2022-10-19T19:18:58.675Z,102219.28
2022-10-19T19:21:28.421Z,102206.47
2022-10-19T19:23:57.801Z,102201.06
2022-10-19T19:26:27.176Z,102196.78
2022-10-19T19:28:54.205Z,102188.31
2022-10-19T19:31:20.806Z,102169.81
2022-10-19T19:33:48.199Z,102167.00
2022-10-19T19:36:17.103Z,102164.84
2022-10-19T19:38:45.664Z,102165.09
2022-10-19T19:41:15.190Z,102166.00
2022-10-19T19:43:42.648Z,102161.72
2022-10-19T19:46:12.967Z,102151.88
2022-10-19T19:48:42.749Z,102154.31
2022-10-19T19:51:17.301Z,102144.81
2022-10-19T19:53:44.352Z,102137.78
2022-10-19T19:56:12.417Z,102135.88
2022-10-19T19:58:39.684Z,102131.72
2022-10-19T20:01:15.064Z,102124.84
2022-10-19T20:03:42.514Z,102123.28
2022-10-19T20:06:10.451Z,102114.56
2022-10-19T20:08:37.509Z,102111.97
2022-10-19T20:11:09.680Z,102110.25
2022-10-19T20:13:36.511Z,102113.84
2022-10-19T20:16:12.499Z,102111.56
2022-10-19T20:18:40.354Z,102119.38
2022-10-19T20:21:07.207Z,102105.84
2022-10-19T20:23:34.094Z,102105.56
2022-10-19T20:26:14.593Z,102104.78
2022-10-19T20:28:41.118Z,102099.13
2022-10-19T20:31:09.214Z,102097.00
2022-10-19T20:33:37.984Z,102085.94
2022-10-19T20:36:04.915Z,102081.78
2022-10-19T20:38:31.391Z,102075.69
2022-10-19T20:40:57.852Z,102076.38
2022-10-19T20:43:24.427Z,102072.09
2022-10-19T20:45:50.880Z,102058.19
2022-10-19T20:48:17.329Z,102050.91
2022-10-19T20:50:43.946Z,102041.91
2022-10-19T20:53:12.556Z,102042.13
2022-10-19T20:55:39.548Z,102045.47
2022-10-19T20:58:06.014Z,102044.44
2022-10-19T21:00:33.019Z,102052.44
2022-10-19T21:02:59.663Z,102053.97
2022-10-19T21:05:26.107Z,102056.69
2022-10-19T21:07:53.280Z,102066.78
2022-10-19T21:10:19.790Z,102062.13
2022-10-19T21:12:46.218Z,102070.53
2022-10-19T21:15:12.790Z,102060.59
2022-10-19T21:17:39.438Z,102063.91
2022-10-19T21:20:06.421Z,102064.03
2022-10-19T21:22:39.054Z,102057.00
2022-10-19T21:25:06.119Z,102052.38
2022-10-19T21:27:32.752Z,102044.81
2022-10-19T21:29:59.559Z,102032.22
2022-10-19T21:32:26.650Z,102041.22
2022-10-19T21:34:53.255Z,102042.75
2022-10-19T21:37:19.755Z,102027.03
2022-10-19T21:39:46.191Z,102035.06
2022-10-19T21:42:12.721Z,102028.84
2022-10-19T21:44:39.243Z,102024.69
2022-10-19T21:47:06.300Z,102032.28
2022-10-19T21:49:32.773Z,102024.22
2022-10-19T21:51:59.199Z,102010.25
2022-10-19T21:54:25.675Z,102015.34
2022-10-19T21:56:53.288Z,102013.34
2022-10-19T21:59:20.140Z,102012.75
2022-10-19T22:01:46.710Z,102005.53
2022-10-19T22:04:16.214Z,102000.72
2022-10-19T22:06:43.266Z,102000.28
2022-10-19T22:09:13.243Z,102002.88
2022-10-19T22:11:39.927Z,101998.44
2022-10-19T22:14:06.527Z,101996.59
2022-10-19T22:16:33.729Z,102004.38
2022-10-19T22:19:00.243Z,101997.69
2022-10-19T22:21:29.445Z,101995.34
2022-10-19T22:24:02.124Z,101991.97
2022-10-19T22:26:31.233Z,101986.66
2022-10-19T22:28:59.580Z,101973.59
2022-10-19T22:31:27.665Z,101978.69
2022-10-19T22:33:54.191Z,101975.31
2022-10-19T22:36:20.911Z,101980.03
2022-10-19T22:38:47.626Z,101963.69
2022-10-19T22:41:14.232Z,101959.38
2022-10-19T22:43:40.829Z,101958.31
2022-10-19T22:46:07.576Z,101954.66
2022-10-19T22:48:34.115Z,101946.88
2022-10-19T22:51:00.562Z,101936.00
2022-10-19T22:53:27.128Z,101928.81
2022-10-19T22:55:53.593Z,101929.59
2022-10-19T22:58:20.319Z,101923.00
2022-10-19T23:01:17.512Z,101916.16
2022-10-19T23:03:44.534Z,101925.59
2022-10-19T23:06:13.417Z,101914.78
2022-10-19T23:08:50.313Z,101920.13
2022-10-19T23:11:17.644Z,101920.88
2022-10-19T23:13:45.878Z,101918.91
2022-10-19T23:16:12.747Z,101915.41
2022-10-19T23:18:41.101Z,101914.63
2022-10-19T23:21:11.690Z,101912.63
2022-10-19T23:23:39.576Z,101909.13
2022-10-19T23:26:08.395Z,101907.31
2022-10-19T23:28:37.894Z,101904.53
2022-10-19T23:31:07.892Z,101900.41
2022-10-19T23:33:35.582Z,101884.38
2022-10-19T23:36:21.045Z,101879.47
2022-10-19T23:38:49.847Z,101884.53
2022-10-19T23:41:17.951Z,101900.56
2022-10-19T23:43:45.135Z,101896.25
2022-10-19T23:46:11.966Z,101879.16
2022-10-19T23:48:39.246Z,101869.56
2022-10-19T23:51:12.524Z,101863.25
2022-10-19T23:53:42.557Z,101862.50
2022-10-19T23:56:19.766Z,101859.59
2022-10-19T23:58:47.459Z,101865.56
